Time;durP1;ratioP1;P1;durP2;ratioP2;P2;SDS_P1;SDS_P2;PMS_P1;PMS_P2;Temp;Humidity;BMP_temperature;BMP_pressure;BME280_temperature;BME280_humidity;BME280_pressure;Samples;Min_cycle;Max_cycle;Signal;HPM_P1;HPM_P2
2022/10/20 00:00:46;;;;;;;4.30;3.13;;;6.50;99.90;;;;;;5114677;28;20211;-70
2022/10/20 00:03:13;;;;;;;8.23;3.13;;;6.50;99.90;;;;;;5110020;28;20204;-70
2022/10/20 00:05:40;;;;;;;5.10;3.40;;;6.50;99.90;;;;;;5113647;28;20243;-70
2022/10/20 00:08:07;;;;;;;4.80;3.30;;;6.50;99.90;;;;;;5113393;28;20196;-70
2022/10/20 00:10:34;;;;;;;4.80;3.23;;;6.50;99.90;;;;;;5112613;28;20212;-70
2022/10/20 00:13:00;;;;;;;5.03;3.27;;;6.50;99.90;;;;;;5111303;28;20247;-70
2022/10/20 00:15:28;;;;;;;5.37;3.50;;;6.40;99.90;;;;;;5110692;28;20220;-70
2022/10/20 00:17:55;;;;;;;4.83;3.70;;;6.40;99.90;;;;;;5113613;28;20601;-71
2022/10/20 00:20:22;;;;;;;5.30;3.60;;;6.40;99.90;;;;;;5111997;28;20208;-71
2022/10/20 00:22:49;;;;;;;4.33;3.63;;;6.40;99.90;;;;;;5113827;28;20227;-71
2022/10/20 00:25:16;;;;;;;5.13;3.70;;;6.40;99.90;;;;;;5113423;28;20554;-70
2022/10/20 00:27:43;;;;;;;4.80;3.43;;;6.40;99.90;;;;;;5110430;28;20742;-70
2022/10/20 00:30:10;;;;;;;4.10;3.30;;;6.30;99.90;;;;;;5111964;28;20208;-71
2022/10/20 00:32:38;;;;;;;5.57;3.80;;;6.40;99.90;;;;;;5112930;28;20204;-71
2022/10/20 00:35:06;;;;;;;4.60;3.77;;;6.40;99.90;;;;;;5112970;28;20648;-70
2022/10/20 00:37:32;;;;;;;5.37;3.60;;;6.40;99.90;;;;;;5110715;28;20206;-71
2022/10/20 00:39:59;;;;;;;7.50;4.30;;;6.40;99.90;;;;;;5114143;28;20212;-70
2022/10/20 00:42:26;;;;;;;4.17;3.50;;;6.30;99.90;;;;;;5113281;28;20215;-72
2022/10/20 00:44:55;;;;;;;5.53;3.43;;;6.30;99.90;;;;;;5111872;28;20692;-70
2022/10/20 00:47:32;;;;;;;5.67;3.57;;;6.30;99.90;;;;;;5108796;28;20601;-70
2022/10/20 00:50:05;;;;;;;6.30;4.00;;;6.30;99.90;;;;;;5108445;28;20215;-70
2022/10/20 00:52:33;;;;;;;6.30;3.73;;;6.20;99.90;;;;;;5112537;28;20640;-71
2022/10/20 00:55:00;;;;;;;9.27;4.40;;;6.30;99.90;;;;;;5110104;28;20751;-70
2022/10/20 00:57:28;;;;;;;6.37;3.67;;;6.30;99.90;;;;;;5111012;28;20211;-71
2022/10/20 00:59:55;;;;;;;4.80;3.90;;;6.30;99.90;;;;;;5111119;28;20379;-71
2022/10/20 01:02:21;;;;;;;8.63;3.80;;;6.20;99.90;;;;;;5111704;28;20204;-71
2022/10/20 01:04:50;;;;;;;6.90;4.10;;;6.20;99.90;;;;;;5110560;28;20239;-71
2022/10/20 01:07:18;;;;;;;9.67;4.10;;;6.20;99.90;;;;;;5111857;28;20212;-71
2022/10/20 01:09:45;;;;;;;5.20;4.00;;;6.10;99.90;;;;;;5111032;28;20214;-71
2022/10/20 01:12:22;;;;;;;5.67;3.80;;;6.10;99.90;;;;;;5108908;28;20586;-70
2022/10/20 01:14:55;;;;;;;4.73;3.97;;;6.10;99.90;;;;;;5110128;28;20202;-70
2022/10/20 01:17:30;;;;;;;5.00;3.73;;;6.10;99.90;;;;;;5112001;28;20199;-71
2022/10/20 01:20:23;;;;;;;4.80;3.73;;;6.00;99.90;;;;;;5109530;28;20204;-70
2022/10/20 01:23:34;;;;;;;5.07;4.00;;;6.00;99.90;;;;;;5109737;28;20223;-70
2022/10/20 01:26:25;;;;;;;6.33;3.73;;;6.00;99.90;;;;;;5107831;28;20230;-70
2022/10/20 01:28:58;;;;;;;4.47;3.57;;;6.00;99.90;;;;;;5109557;28;20209;-70
2022/10/20 01:31:30;;;;;;;7.33;3.83;;;6.00;99.90;;;;;;5110613;28;20208;-70
2022/10/20 01:34:04;;;;;;;4.83;3.93;;;6.00;99.90;;;;;;5103641;28;20206;-70
2022/10/20 01:36:37;;;;;;;8.10;4.20;;;6.00;99.90;;;;;;5111124;28;20200;-70
2022/10/20 01:39:09;;;;;;;4.40;3.80;;;6.00;99.90;;;;;;5112315;28;20598;-71
2022/10/20 01:41:40;;;;;;;10.67;3.90;;;5.90;99.90;;;;;;5109703;28;20211;-70
2022/10/20 01:44:11;;;;;;;6.07;3.93;;;6.00;99.90;;;;;;5110013;28;20203;-71
2022/10/20 01:46:41;;;;;;;7.87;4.33;;;6.00;99.90;;;;;;5111999;28;20294;-70
2022/10/20 01:49:08;;;;;;;5.70;3.53;;;5.90;99.90;;;;;;5113129;28;20208;-70
2022/10/20 01:51:35;;;;;;;6.10;3.93;;;5.90;99.90;;;;;;5110122;28;20200;-70
2022/10/20 01:54:02;;;;;;;6.60;4.00;;;5.90;99.90;;;;;;5108625;28;20208;-71
2022/10/20 01:56:38;;;;;;;5.87;3.87;;;5.90;99.90;;;;;;5110770;28;20229;-70
2022/10/20 01:59:25;;;;;;;5.67;3.50;;;5.90;99.90;;;;;;5109373;28;20204;-71
2022/10/20 02:02:10;;;;;;;5.83;3.60;;;5.80;99.90;;;;;;5110220;28;20572;-70
2022/10/20 02:05:01;;;;;;;5.17;3.70;;;5.90;99.90;;;;;;5110857;28;20712;-70
2022/10/20 02:07:31;;;;;;;7.07;4.03;;;5.90;99.90;;;;;;5107914;28;20579;-70
2022/10/20 02:10:04;;;;;;;5.70;3.70;;;5.90;99.90;;;;;;5112486;28;20208;-71
2022/10/20 02:12:35;;;;;;;10.73;4.90;;;5.90;99.90;;;;;;5109631;28;20212;-70
2022/10/20 02:15:05;;;;;;;6.07;4.13;;;5.90;99.90;;;;;;5106106;28;20675;-70
2022/10/20 02:17:34;;;;;;;6.17;4.07;;;5.80;99.90;;;;;;5109525;28;20211;-70
2022/10/20 02:20:02;;;;;;;7.87;4.50;;;5.80;99.90;;;;;;5110662;28;20204;-71
2022/10/20 02:22:29;;;;;;;7.40;4.23;;;5.80;99.90;;;;;;5108224;28;20239;-71
2022/10/20 02:24:56;;;;;;;4.57;3.70;;;5.90;99.90;;;;;;5109785;28;20216;-71
2022/10/20 02:27:27;;;;;;;6.60;3.40;;;5.80;99.90;;;;;;5110685;28;20681;-70
2022/10/20 02:29:59;;;;;;;8.07;3.83;;;5.80;99.90;;;;;;5109698;28;20211;-71
2022/10/20 02:32:28;;;;;;;5.53;3.90;;;5.80;99.90;;;;;;5110167;28;20208;-70
2022/10/20 02:34:55;;;;;;;5.73;4.27;;;5.80;99.90;;;;;;5110353;28;20594;-70
2022/10/20 02:37:22;;;;;;;5.87;3.80;;;5.90;99.90;;;;;;5110813;28;20203;-70
2022/10/20 02:39:48;;;;;;;8.23;4.50;;;5.80;99.90;;;;;;5110549;28;20299;-70
2022/10/20 02:42:16;;;;;;;7.13;3.97;;;5.80;99.90;;;;;;5108190;28;20203;-71
2022/10/20 02:44:43;;;;;;;5.77;4.23;;;5.80;99.90;;;;;;5108652;28;20214;-71
2022/10/20 02:47:10;;;;;;;5.63;3.80;;;5.80;99.90;;;;;;5109736;28;20224;-70
2022/10/20 02:49:38;;;;;;;4.93;4.07;;;5.80;99.90;;;;;;5108483;28;20211;-70
2022/10/20 02:52:04;;;;;;;6.10;4.37;;;5.70;99.90;;;;;;5110754;28;20565;-71
2022/10/20 02:54:31;;;;;;;7.73;4.17;;;5.70;99.90;;;;;;5108673;28;20200;-71
2022/10/20 02:56:58;;;;;;;6.67;3.97;;;5.70;99.90;;;;;;5109347;28;20560;-70
2022/10/20 02:59:25;;;;;;;5.83;4.17;;;5.70;99.90;;;;;;5102790;28;20219;-71
2022/10/20 03:01:51;;;;;;;6.20;3.97;;;5.70;99.90;;;;;;5107503;28;20218;-70
2022/10/20 03:04:18;;;;;;;7.53;4.23;;;5.70;99.90;;;;;;5110437;28;20204;-71
2022/10/20 03:06:47;;;;;;;6.57;4.27;;;5.70;99.90;;;;;;5110089;28;20207;-71
2022/10/20 03:09:13;;;;;;;6.27;4.47;;;5.70;99.90;;;;;;5110377;28;20215;-70
2022/10/20 03:11:40;;;;;;;5.23;3.80;;;5.70;99.90;;;;;;5110117;28;20579;-71
2022/10/20 03:14:07;;;;;;;5.83;4.47;;;5.70;99.90;;;;;;5109267;28;20204;-70
2022/10/20 03:16:34;;;;;;;9.50;4.10;;;5.70;99.90;;;;;;5101502;28;20223;-70
2022/10/20 03:19:00;;;;;;;7.83;4.60;;;5.60;99.90;;;;;;5107795;28;20944;-70
2022/10/20 03:21:27;;;;;;;7.23;3.90;;;5.60;99.90;;;;;;5110242;28;20207;-71
2022/10/20 03:23:56;;;;;;;6.93;4.17;;;5.60;99.90;;;;;;5109645;28;20246;-70
2022/10/20 03:26:23;;;;;;;5.63;4.27;;;5.60;99.90;;;;;;5108484;28;20196;-70
2022/10/20 03:28:49;;;;;;;6.27;5.17;;;5.50;99.90;;;;;;5108446;28;20219;-72
2022/10/20 03:31:16;;;;;;;7.27;5.00;;;5.50;99.90;;;;;;5114983;28;20191;-71
2022/10/20 03:33:43;;;;;;;7.43;4.63;;;5.40;99.90;;;;;;5115692;28;20200;-71
2022/10/20 03:36:10;;;;;;;6.57;4.30;;;5.40;99.90;;;;;;5112851;28;20204;-71
2022/10/20 03:38:37;;;;;;;7.63;4.40;;;5.40;99.90;;;;;;5113758;28;20289;-70
2022/10/20 03:41:05;;;;;;;9.30;4.67;;;5.50;99.90;;;;;;5115464;28;20208;-71
2022/10/20 03:43:32;;;;;;;5.93;4.33;;;5.30;99.90;;;;;;5113848;28;20591;-70
2022/10/20 03:46:03;;;;;;;7.83;4.53;;;5.40;99.90;;;;;;5111484;28;20202;-71
2022/10/20 03:48:30;;;;;;;7.43;5.27;;;5.30;99.90;;;;;;5113098;28;20307;-71
2022/10/20 03:50:57;;;;;;;5.83;4.60;;;5.30;99.90;;;;;;5114572;28;20212;-71
2022/10/20 03:53:24;;;;;;;7.47;4.53;;;5.30;99.90;;;;;;5112688;28;20207;-71
2022/10/20 03:55:51;;;;;;;7.87;4.80;;;5.30;99.90;;;;;;5112820;28;20725;-70
2022/10/20 03:58:19;;;;;;;5.67;4.67;;;5.30;99.90;;;;;;5111379;28;20211;-71
2022/10/20 04:00:46;;;;;;;7.70;4.23;;;5.30;99.90;;;;;;5113244;28;20204;-71
2022/10/20 04:03:13;;;;;;;5.30;4.07;;;5.20;99.90;;;;;;5112691;28;20208;-71
2022/10/20 04:05:39;;;;;;;6.27;4.73;;;5.30;99.90;;;;;;5111828;28;20242;-70
2022/10/20 04:08:06;;;;;;;6.57;4.73;;;5.20;99.90;;;;;;5111770;28;20216;-71
2022/10/20 04:10:33;;;;;;;9.73;5.23;;;5.20;99.90;;;;;;5112341;28;20204;-71
2022/10/20 04:13:00;;;;;;;8.10;4.73;;;5.20;99.90;;;;;;5111921;28;20633;-71
2022/10/20 04:15:28;;;;;;;8.47;4.77;;;5.20;99.90;;;;;;5110728;28;20603;-71
2022/10/20 04:17:55;;;;;;;7.03;5.00;;;5.20;99.90;;;;;;5111747;28;20211;-71
2022/10/20 04:20:22;;;;;;;9.63;5.40;;;5.10;99.90;;;;;;5114241;28;20269;-70
2022/10/20 04:22:48;;;;;;;10.23;5.03;;;5.10;99.90;;;;;;5112131;28;20309;-70
2022/10/20 04:25:15;;;;;;;7.80;4.60;;;5.10;99.90;;;;;;5110387;28;20215;-71
2022/10/20 04:27:42;;;;;;;8.40;4.77;;;5.10;99.90;;;;;;5110360;28;20220;-70
2022/10/20 04:30:10;;;;;;;7.70;4.73;;;5.10;99.90;;;;;;5111901;28;20208;-71
2022/10/20 04:32:38;;;;;;;6.13;4.47;;;5.10;99.90;;;;;;5111349;28;20572;-70
2022/10/20 04:35:06;;;;;;;7.87;4.90;;;5.00;99.90;;;;;;5112938;28;20212;-71
2022/10/20 04:37:33;;;;;;;9.27;5.47;;;5.00;99.90;;;;;;5111888;28;20758;-71
2022/10/20 04:39:59;;;;;;;9.03;5.00;;;5.00;99.90;;;;;;5111055;28;20584;-70
2022/10/20 04:42:26;;;;;;;8.07;4.60;;;5.00;99.90;;;;;;5108616;28;20203;-71
2022/10/20 04:44:53;;;;;;;6.40;4.30;;;5.00;99.90;;;;;;5108641;28;20207;-71
2022/10/20 04:47:20;;;;;;;7.47;5.13;;;5.00;99.90;;;;;;5113095;28;20210;-70
2022/10/20 04:49:48;;;;;;;8.80;4.60;;;5.00;99.90;;;;;;5113519;28;20208;-72
2022/10/20 04:52:14;;;;;;;6.43;4.83;;;4.90;99.90;;;;;;5113140;28;20200;-69
2022/10/20 04:54:41;;;;;;;8.10;4.47;;;4.90;99.90;;;;;;5112803;28;20640;-72
2022/10/20 04:57:09;;;;;;;8.77;5.63;;;4.90;99.90;;;;;;5108317;28;20210;-70
2022/10/20 04:59:36;;;;;;;6.47;4.10;;;4.90;99.90;;;;;;5108811;28;20224;-70
2022/10/20 05:02:03;;;;;;;8.17;5.40;;;4.90;99.90;;;;;;5109541;28;20622;-73
2022/10/20 05:04:29;;;;;;;8.93;5.13;;;4.90;99.90;;;;;;5113035;28;20215;-72
2022/10/20 05:06:57;;;;;;;6.63;4.77;;;4.90;99.90;;;;;;5104485;28;20668;-70
2022/10/20 05:09:24;;;;;;;8.80;5.10;;;4.90;99.90;;;;;;5110391;28;20247;-72
2022/10/20 05:11:52;;;;;;;7.80;5.30;;;4.90;99.90;;;;;;5107573;28;20211;-73
2022/10/20 05:14:19;;;;;;;6.47;5.07;;;4.90;99.90;;;;;;5106193;28;20209;-73
2022/10/20 05:16:45;;;;;;;8.97;5.30;;;4.90;99.90;;;;;;5105703;28;20204;-72
2022/10/20 05:19:12;;;;;;;8.83;5.73;;;4.90;99.90;;;;;;5108807;28;20200;-72
2022/10/20 05:21:39;;;;;;;10.57;6.00;;;4.90;99.90;;;;;;5111216;28;20204;-68
2022/10/20 05:24:07;;;;;;;9.13;5.27;;;4.90;99.90;;;;;;5110573;28;20220;-70
2022/10/20 05:26:36;;;;;;;10.33;5.60;;;5.00;99.90;;;;;;5110092;27;20204;-70
2022/10/20 05:29:04;;;;;;;8.47;5.57;;;5.00;99.90;;;;;;5110896;28;20231;-71
2022/10/20 05:31:31;;;;;;;10.67;5.53;;;5.00;99.90;;;;;;5109170;28;20204;-72
2022/10/20 05:33:58;;;;;;;10.40;5.80;;;5.00;99.90;;;;;;5092321;27;20212;-71
2022/10/20 05:36:26;;;;;;;11.23;5.87;;;5.00;99.90;;;;;;5109472;28;20664;-71
2022/10/20 05:38:55;;;;;;;11.07;6.37;;;5.00;99.90;;;;;;5103604;28;20211;-70
2022/10/20 05:41:25;;;;;;;10.17;5.83;;;5.10;99.90;;;;;;5108386;28;20712;-71
2022/10/20 05:43:56;;;;;;;11.33;6.43;;;5.10;99.90;;;;;;5106818;28;20211;-72
2022/10/20 05:46:23;;;;;;;11.03;6.57;;;5.10;99.90;;;;;;5110276;28;20204;-72
2022/10/20 05:48:53;;;;;;;12.83;6.23;;;5.10;99.90;;;;;;5100675;28;20224;-70
2022/10/20 05:51:21;;;;;;;11.17;6.10;;;5.10;99.90;;;;;;5107363;28;20591;-71
2022/10/20 05:53:48;;;;;;;9.70;6.40;;;5.20;99.90;;;;;;5107904;28;20211;-69
2022/10/20 05:56:17;;;;;;;16.60;7.80;;;5.20;99.90;;;;;;5105256;28;20222;-71
2022/10/20 05:58:47;;;;;;;14.77;7.47;;;5.20;99.90;;;;;;5109057;28;20207;-72
2022/10/20 06:01:16;;;;;;;10.57;7.07;;;5.30;99.90;;;;;;5109573;28;20325;-72
2022/10/20 06:03:43;;;;;;;13.47;7.30;;;5.30;99.90;;;;;;5110845;28;20203;-70
2022/10/20 06:06:10;;;;;;;11.73;7.53;;;5.40;99.90;;;;;;5110938;28;20227;-70
2022/10/20 06:08:36;;;;;;;12.67;8.37;;;5.40;99.90;;;;;;5111122;28;20219;-70
2022/10/20 06:11:04;;;;;;;12.93;7.57;;;5.40;99.90;;;;;;5109967;28;20203;-70
2022/10/20 06:13:32;;;;;;;13.30;8.50;;;5.50;99.90;;;;;;5110780;28;20211;-70
2022/10/20 06:16:03;;;;;;;14.33;7.87;;;5.60;99.90;;;;;;5109023;28;20231;-71
2022/10/20 06:18:31;;;;;;;15.33;8.23;;;5.60;99.90;;;;;;5110501;28;20200;-71
2022/10/20 06:21:01;;;;;;;14.43;8.57;;;5.60;99.90;;;;;;5110352;28;20211;-72
2022/10/20 06:23:28;;;;;;;16.37;9.03;;;5.70;99.90;;;;;;5110844;28;20231;-71
2022/10/20 06:26:00;;;;;;;17.63;8.47;;;5.80;99.90;;;;;;5108361;28;20204;-70
2022/10/20 06:28:29;;;;;;;20.37;9.23;;;5.80;99.90;;;;;;5110444;28;20212;-71
2022/10/20 06:30:56;;;;;;;11.10;7.83;;;5.80;99.90;;;;;;5107398;28;20207;-70
2022/10/20 06:33:24;;;;;;;12.73;7.67;;;5.90;99.90;;;;;;5107921;28;20230;-71
2022/10/20 06:35:51;;;;;;;13.97;8.40;;;6.00;99.90;;;;;;5109850;28;20212;-71
2022/10/20 06:38:18;;;;;;;17.20;9.57;;;6.00;99.90;;;;;;5110312;28;20203;-69
2022/10/20 06:40:45;;;;;;;12.60;8.57;;;6.10;99.90;;;;;;5108997;28;20211;-69
2022/10/20 06:43:12;;;;;;;12.67;7.73;;;6.20;99.90;;;;;;5108975;28;20204;-69
2022/10/20 06:45:39;;;;;;;14.63;8.33;;;6.30;99.90;;;;;;5107904;28;20660;-68
2022/10/20 06:48:06;;;;;;;15.87;8.10;;;6.40;99.90;;;;;;5102595;28;20214;-69
2022/10/20 06:50:34;;;;;;;13.50;8.23;;;6.50;99.90;;;;;;5110119;28;20208;-68
2022/10/20 06:53:01;;;;;;;13.33;8.27;;;6.60;99.90;;;;;;5111128;28;20272;-68
2022/10/20 06:55:28;;;;;;;12.67;7.67;;;6.80;99.90;;;;;;5111105;28;20203;-68
2022/10/20 06:57:55;;;;;;;14.63;7.67;;;7.00;99.90;;;;;;5108906;28;20222;-70
2022/10/20 07:00:21;;;;;;;19.67;8.47;;;7.20;99.90;;;;;;5105814;28;20208;-67
2022/10/20 07:02:48;;;;;;;13.13;7.77;;;7.40;99.90;;;;;;5107985;28;20251;-70
2022/10/20 07:05:15;;;;;;;18.47;8.23;;;7.50;99.90;;;;;;5101176;28;20570;-69
2022/10/20 07:07:43;;;;;;;14.63;8.27;;;7.60;99.90;;;;;;5099308;28;20207;-68
2022/10/20 07:10:10;;;;;;;14.77;7.90;;;7.70;99.90;;;;;;5104169;28;20611;-69
2022/10/20 07:12:37;;;;;;;13.70;7.73;;;7.80;99.90;;;;;;5108816;28;20294;-69
2022/10/20 07:15:04;;;;;;;15.40;7.70;;;7.90;99.90;;;;;;5102790;28;20203;-69
2022/10/20 07:17:31;;;;;;;12.40;8.13;;;8.00;99.90;;;;;;5108281;28;20208;-69
2022/10/20 07:19:58;;;;;;;15.67;8.73;;;8.10;99.90;;;;;;5109596;28;20675;-69
2022/10/20 07:22:25;;;;;;;14.13;8.03;;;8.20;99.90;;;;;;5107515;28;20224;-69
2022/10/20 07:24:53;;;;;;;14.47;8.33;;;8.30;99.90;;;;;;5102875;28;20215;-69
2022/10/20 07:27:20;;;;;;;14.63;8.20;;;8.40;99.90;;;;;;5098711;28;20600;-69
2022/10/20 07:29:46;;;;;;;17.17;8.63;;;8.60;99.90;;;;;;5107018;28;20231;-69
2022/10/20 07:32:13;;;;;;;11.73;7.37;;;8.80;99.90;;;;;;5106664;28;20239;-68
2022/10/20 07:34:40;;;;;;;12.47;7.77;;;9.00;99.90;;;;;;5104940;28;20208;-70
2022/10/20 07:37:06;;;;;;;12.57;8.03;;;9.10;99.90;;;;;;5102578;28;20214;-69
2022/10/20 07:39:33;;;;;;;11.37;7.60;;;9.20;99.90;;;;;;5102535;28;20648;-69
2022/10/20 07:42:01;;;;;;;18.67;7.93;;;9.30;99.90;;;;;;5099843;28;20203;-69
2022/10/20 07:44:28;;;;;;;12.97;7.80;;;9.40;99.90;;;;;;5095583;28;21474;-69
2022/10/20 07:46:55;;;;;;;13.50;7.47;;;9.60;99.90;;;;;;5099681;28;20211;-68
2022/10/20 07:49:21;;;;;;;17.23;7.93;;;9.80;99.90;;;;;;5101330;28;20240;-68
2022/10/20 07:51:48;;;;;;;15.47;8.00;;;10.00;99.90;;;;;;5098341;28;20211;-70
2022/10/20 07:54:15;;;;;;;15.27;7.40;;;10.30;99.90;;;;;;5099540;28;20200;-69
2022/10/20 07:56:43;;;;;;;11.13;6.43;;;10.50;99.90;;;;;;5101083;28;20200;-69
2022/10/20 07:59:13;;;;;;;14.33;7.27;;;10.60;99.90;;;;;;5101801;28;20249;-68
2022/10/20 08:01:40;;;;;;;19.63;6.60;;;10.90;99.90;;;;;;5101606;28;20211;-68
2022/10/20 08:04:07;;;;;;;14.83;7.13;;;11.00;99.90;;;;;;5101034;28;20218;-70
2022/10/20 08:06:34;;;;;;;15.87;5.80;;;11.00;99.90;;;;;;5099439;28;20754;-69
2022/10/20 08:09:01;;;;;;;14.43;5.93;;;11.20;99.90;;;;;;5105540;28;20672;-69
2022/10/20 08:11:28;;;;;;;11.50;5.40;;;11.40;99.90;;;;;;5105919;28;20447;-68
2022/10/20 08:13:54;;;;;;;7.77;5.80;;;11.40;99.90;;;;;;5103436;28;20208;-69
2022/10/20 08:16:23;;;;;;;9.93;5.17;;;11.50;99.90;;;;;;5110365;28;20729;-69
2022/10/20 08:18:50;;;;;;;13.50;5.87;;;11.70;99.90;;;;;;5109501;28;20212;-68
2022/10/20 08:21:19;;;;;;;7.13;5.07;;;11.90;99.90;;;;;;5105102;28;20215;-69
2022/10/20 08:23:48;;;;;;;8.13;4.63;;;12.30;99.90;;;;;;5102688;28;20238;-70
2022/10/20 08:26:18;;;;;;;11.87;5.30;;;12.80;99.90;;;;;;5107806;28;20199;-69
2022/10/20 08:28:45;;;;;;;9.60;5.23;;;13.30;99.90;;;;;;5111756;28;20223;-70
2022/10/20 08:31:11;;;;;;;7.70;4.17;;;13.70;99.90;;;;;;5107094;28;20208;-70
2022/10/20 08:33:40;;;;;;;6.87;4.80;;;14.10;99.90;;;;;;5102877;28;20211;-70
2022/10/20 08:36:08;;;;;;;7.90;4.40;;;14.40;99.90;;;;;;5102404;28;20211;-70
2022/10/20 08:38:36;;;;;;;7.83;3.93;;;14.70;99.90;;;;;;5104196;28;20546;-69
2022/10/20 08:41:06;;;;;;;6.87;3.80;;;15.10;99.90;;;;;;5102471;28;20218;-70
2022/10/20 08:43:41;;;;;;;5.77;3.73;;;15.50;99.90;;;;;;5108792;28;20204;-69
2022/10/20 08:46:14;;;;;;;6.90;4.00;;;16.00;99.90;;;;;;5099109;28;20223;-70
2022/10/20 08:48:44;;;;;;;5.97;4.40;;;16.80;99.90;;;;;;5102753;28;20667;-69
2022/10/20 08:51:17;;;;;;;5.40;4.20;;;17.70;99.90;;;;;;5102171;28;20200;-69
2022/10/20 08:53:46;;;;;;;7.47;4.75;;;18.80;95.40;;;;;;5099948;28;20560;-70
2022/10/20 08:56:14;;;;;;;7.32;5.07;;;19.60;92.20;;;;;;5100672;28;20235;-69
2022/10/20 08:58:43;;;;;;;6.43;4.25;;;19.90;89.10;;;;;;5106742;28;20208;-69
2022/10/20 09:01:20;;;;;;;7.05;5.10;;;19.90;83.90;;;;;;5105876;28;20208;-69
2022/10/20 09:03:52;;;;;;;6.80;4.40;;;19.30;80.50;;;;;;5101846;28;20682;-70
2022/10/20 09:06:19;;;;;;;6.40;5.10;;;18.70;80.60;;;;;;5097410;28;20278;-69
2022/10/20 09:08:47;;;;;;;8.38;5.38;;;18.30;82.10;;;;;;5099345;28;20204;-70
2022/10/20 09:11:19;;;;;;;7.18;4.70;;;17.90;83.70;;;;;;5106578;28;20212;-69
2022/10/20 09:13:46;;;;;;;7.03;4.38;;;17.90;83.80;;;;;;5104196;28;20526;-69
2022/10/20 09:16:18;;;;;;;6.07;4.07;;;17.90;84.30;;;;;;5108516;28;20588;-70
2022/10/20 09:18:56;;;;;;;6.10;5.45;;;18.30;83.70;;;;;;5104885;28;20481;-69
2022/10/20 09:21:24;;;;;;;6.40;5.32;;;18.40;81.50;;;;;;5103530;28;20289;-69
2022/10/20 09:23:54;;;;;;;8.82;5.00;;;18.50;81.60;;;;;;5105298;27;20238;-69
2022/10/20 09:26:23;;;;;;;7.43;5.10;;;18.50;82.10;;;;;;5105964;28;20207;-69
2022/10/20 09:28:51;;;;;;;7.60;4.43;;;19.20;84.30;;;;;;5102564;27;20199;-69
2022/10/20 09:31:23;;;;;;;6.97;4.78;;;22.10;85.60;;;;;;5106445;28;20572;-70
2022/10/20 09:33:50;;;;;;;7.53;5.18;;;25.90;68.40;;;;;;5104116;28;20211;-68
2022/10/20 09:36:18;;;;;;;6.63;4.47;;;28.90;55.50;;;;;;5104369;28;21283;-71
2022/10/20 09:38:48;;;;;;;6.15;4.40;;;30.90;48.90;;;;;;5108886;28;20599;-69
2022/10/20 09:41:18;;;;;;;6.72;4.40;;;32.90;44.00;;;;;;5108215;28;20215;-69
2022/10/20 09:43:50;;;;;;;4.82;3.70;;;34.60;39.70;;;;;;5104923;28;20204;-69
2022/10/20 09:46:21;;;;;;;3.30;3.00;;;35.40;37.20;;;;;;5102067;28;20210;-69
2022/10/20 09:48:50;;;;;;;7.45;3.28;;;36.40;35.90;;;;;;5101738;28;20719;-69
2022/10/20 09:51:20;;;;;;;4.38;3.45;;;37.50;33.80;;;;;;5101080;28;20223;-69
2022/10/20 09:53:58;;;;;;;7.10;3.28;;;38.70;32.00;;;;;;5105133;28;20207;-69
2022/10/20 09:56:30;;;;;;;4.55;2.17;;;40.10;30.50;;;;;;5109290;28;20207;-69
2022/10/20 09:58:59;;;;;;;2.50;1.90;;;41.70;29.00;;;;;;5110345;28;20223;-69
2022/10/20 10:01:26;;;;;;;3.15;2.47;;;42.80;27.80;;;;;;5103121;28;20203;-69
2022/10/20 10:03:57;;;;;;;4.50;2.80;;;43.30;27.10;;;;;;5109482;28;20219;-70
2022/10/20 10:06:30;;;;;;;4.03;2.20;;;44.00;26.50;;;;;;5110173;28;20238;-69
2022/10/20 10:09:00;;;;;;;4.10;1.75;;;45.00;25.70;;;;;;5108309;28;20203;-69
2022/10/20 10:11:33;;;;;;;2.70;2.03;;;45.80;25.00;;;;;;5106745;28;20212;-69
2022/10/20 10:14:00;;;;;;;3.55;2.03;;;43.60;24.50;;;;;;5110424;28;20526;-69
2022/10/20 10:16:27;;;;;;;3.47;2.33;;;42.00;26.00;;;;;;5108376;28;20227;-69
2022/10/20 10:18:59;;;;;;;3.25;2.50;;;42.40;26.20;;;;;;5108877;28;20553;-69
2022/10/20 10:21:26;;;;;;;2.95;2.67;;;42.80;24.80;;;;;;5111935;28;20778;-70
2022/10/20 10:23:55;;;;;;;4.65;3.80;;;41.00;25.00;;;;;;5112171;28;20473;-69
2022/10/20 10:26:47;;;;;;;3.10;1.63;;;39.90;27.10;;;;;;5111421;28;20199;-69
2022/10/20 10:29:19;;;;;;;1.58;1.38;;;41.00;26.00;;;;;;5112296;28;20737;-69
2022/10/20 10:31:51;;;;;;;2.55;1.40;;;41.60;25.40;;;;;;5106307;28;20208;-69
2022/10/20 10:34:32;;;;;;;1.67;0.98;;;42.00;25.60;;;;;;5105213;28;20226;-69
2022/10/20 10:36:59;;;;;;;1.30;1.20;;;41.50;24.20;;;;;;5108493;28;20204;-69
2022/10/20 10:39:26;;;;;;;0.93;0.80;;;38.70;25.00;;;;;;5110062;28;20252;-70
2022/10/20 10:42:06;;;;;;;0.82;0.80;;;36.60;26.90;;;;;;5109680;28;20211;-68
2022/10/20 10:44:48;;;;;;;1.00;0.90;;;35.90;26.80;;;;;;5109587;28;20207;-69
2022/10/20 10:47:30;;;;;;;1.40;1.00;;;34.70;27.50;;;;;;5110262;28;20188;-68
2022/10/20 10:50:05;;;;;;;2.42;1.00;;;33.30;28.00;;;;;;5108643;28;20230;-69
2022/10/20 10:52:43;;;;;;;2.95;1.58;;;33.80;29.90;;;;;;5107623;28;20200;-68
2022/10/20 10:55:18;;;;;;;2.05;1.45;;;36.00;28.50;;;;;;5105139;28;20206;-68
2022/10/20 10:57:57;;;;;;;3.78;1.60;;;38.30;27.30;;;;;;5108642;28;20210;-67
2022/10/20 11:00:38;;;;;;;3.35;1.60;;;39.30;25.80;;;;;;5107697;28;20207;-68
2022/10/20 11:03:25;;;;;;;3.03;1.63;;;37.90;25.60;;;;;;5110107;28;20200;-68
2022/10/20 11:06:11;;;;;;;3.28;1.30;;;35.70;26.80;;;;;;5107536;28;20231;-70
2022/10/20 11:09:01;;;;;;;3.30;1.20;;;32.90;28.40;;;;;;5107395;28;20662;-68
2022/10/20 11:11:41;;;;;;;3.15;0.80;;;30.50;30.00;;;;;;5108534;28;20223;-69
2022/10/20 11:14:27;;;;;;;4.72;1.00;;;28.90;31.60;;;;;;5096203;28;20840;-69
2022/10/20 11:17:06;;;;;;;2.03;1.00;;;27.40;32.60;;;;;;5107387;28;20203;-69
2022/10/20 11:20:13;;;;;;;4.03;1.20;;;26.00;33.80;;;;;;5108080;28;20211;-68
2022/10/20 11:22:47;;;;;;;2.67;1.05;;;24.90;34.90;;;;;;5085111;28;20636;-69
2022/10/20 11:25:27;;;;;;;5.80;1.20;;;23.80;36.00;;;;;;5084412;28;20211;-68
2022/10/20 11:27:57;;;;;;;2.75;1.10;;;23.00;37.00;;;;;;5098642;28;20199;-69
2022/10/20 11:30:26;;;;;;;3.10;1.40;;;22.30;38.00;;;;;;5108326;28;20216;-69
2022/10/20 11:32:58;;;;;;;2.70;1.10;;;21.50;39.00;;;;;;5108572;28;20203;-69
2022/10/20 11:35:33;;;;;;;3.67;1.70;;;20.80;40.90;;;;;;5109515;28;20608;-68
2022/10/20 11:38:15;;;;;;;6.60;1.55;;;20.10;41.50;;;;;;5107754;28;20195;-68
2022/10/20 11:40:47;;;;;;;6.30;1.50;;;19.30;43.10;;;;;;5108161;28;20200;-68
2022/10/20 11:43:20;;;;;;;8.30;1.60;;;18.90;44.80;;;;;;5109296;28;20196;-68
2022/10/20 11:45:53;;;;;;;4.50;1.85;;;17.90;45.90;;;;;;5109194;28;20196;-69
2022/10/20 11:48:26;;;;;;;7.70;1.83;;;17.40;46.60;;;;;;5110499;28;20200;-68
2022/10/20 11:51:10;;;;;;;3.63;1.38;;;17.00;47.70;;;;;;5112314;28;20243;-69
2022/10/20 11:53:57;;;;;;;5.80;1.80;;;16.60;48.50;;;;;;5113196;28;20200;-69
2022/10/20 11:56:38;;;;;;;2.28;1.30;;;16.20;49.40;;;;;;5112354;28;20211;-68
2022/10/20 11:59:25;;;;;;;4.10;1.42;;;15.90;49.80;;;;;;5113194;28;20207;-68
2022/10/20 12:02:46;;;;;;;1.63;1.00;;;15.70;50.80;;;;;;5111687;28;20202;-69
2022/10/20 12:05:56;;;;;;;4.10;1.23;;;15.50;51.70;;;;;;5059295;28;20248;-69
2022/10/20 12:08:36;;;;;;;2.30;1.33;;;15.30;52.00;;;;;;5007269;28;20667;-69
2022/10/20 12:11:11;;;;;;;2.37;1.20;;;15.00;52.30;;;;;;5099310;28;20255;-69
2022/10/20 12:13:46;;;;;;;0.93;0.90;;;14.80;53.30;;;;;;5111567;28;20317;-68
2022/10/20 12:16:12;;;;;;;2.73;1.20;;;14.50;53.60;;;;;;5111822;28;20209;-69
2022/10/20 12:18:39;;;;;;;2.03;1.30;;;14.40;54.30;;;;;;5112031;28;20659;-68
2022/10/20 12:21:10;;;;;;;4.47;1.37;;;14.30;54.60;;;;;;5112346;28;20207;-69
2022/10/20 12:24:01;;;;;;;4.70;1.70;;;14.20;55.00;;;;;;5112437;27;20224;-68
2022/10/20 12:26:40;;;;;;;3.43;1.10;;;14.10;55.20;;;;;;5100431;28;20660;-68
2022/10/20 12:29:48;;;;;;;3.83;1.10;;;13.90;55.50;;;;;;5111272;28;20631;-73
2022/10/20 12:33:08;;;;;;;2.87;1.20;;;13.80;56.50;;;;;;5048973;28;20314;-68
2022/10/20 12:36:01;;;;;;;2.87;1.40;;;13.70;56.70;;;;;;5048018;28;20297;-69
2022/10/20 12:38:31;;;;;;;2.33;1.53;;;13.60;57.70;;;;;;5112076;28;20195;-69
2022/10/20 12:41:00;;;;;;;3.03;1.13;;;13.60;57.60;;;;;;5111924;28;20621;-70
2022/10/20 12:43:34;;;;;;;3.00;0.97;;;13.60;57.90;;;;;;5108986;28;20215;-69
2022/10/20 12:46:09;;;;;;;2.07;1.23;;;13.50;58.00;;;;;;5102643;28;20203;-69
2022/10/20 12:48:42;;;;;;;3.40;1.17;;;13.50;58.00;;;;;;5107697;28;20563;-68
2022/10/20 12:51:19;;;;;;;6.57;1.27;;;13.50;58.30;;;;;;5111791;28;20228;-69
2022/10/20 12:53:53;;;;;;;3.33;1.30;;;13.40;58.40;;;;;;5112081;28;20430;-69
2022/10/20 12:56:21;;;;;;;2.87;1.40;;;13.40;58.50;;;;;;5111478;28;20682;-69
2022/10/20 12:59:21;;;;;;;2.17;1.60;;;13.50;58.40;;;;;;5111346;28;20664;-69
2022/10/20 13:02:39;;;;;;;2.80;1.20;;;13.40;58.40;;;;;;5110262;28;20200;-69
2022/10/20 13:05:38;;;;;;;1.60;1.03;;;13.40;58.80;;;;;;5098437;28;20680;-69
2022/10/20 13:08:33;;;;;;;1.07;0.83;;;13.30;58.90;;;;;;5104573;28;20196;-69
2022/10/20 13:11:48;;;;;;;1.83;1.03;;;13.30;58.70;;;;;;5111618;28;20905;-69